sensor_id;sensor_type;location;lat;lon;timestamp;P1;durP1;ratioP1;P2;durP2;ratioP2
44824;SDS011;30542;47.928;2.138;2022-08-19T00:00:22;3.95;;;3.65;;
44824;SDS011;30542;47.928;2.138;2022-08-19T00:05:22;3.60;;;3.30;;
44824;SDS011;30542;47.928;2.138;2022-08-19T00:10:23;3.80;;;3.55;;
44824;SDS011;30542;47.928;2.138;2022-08-19T00:15:24;3.95;;;3.65;;
44824;SDS011;30542;47.928;2.138;2022-08-19T00:20:24;3.43;;;3.07;;
44824;SDS011;30542;47.928;2.138;2022-08-19T00:25:25;3.80;;;3.40;;
44824;SDS011;30542;47.928;2.138;2022-08-19T00:30:26;3.60;;;3.30;;
44824;SDS011;30542;47.928;2.138;2022-08-19T00:35:30;3.05;;;2.85;;
44824;SDS011;30542;47.928;2.138;2022-08-19T00:40:30;3.40;;;3.03;;
44824;SDS011;30542;47.928;2.138;2022-08-19T00:45:31;4.35;;;3.60;;
44824;SDS011;30542;47.928;2.138;2022-08-19T00:50:32;2.80;;;2.60;;
44824;SDS011;30542;47.928;2.138;2022-08-19T00:55:33;3.28;;;3.10;;
44824;SDS011;30542;47.928;2.138;2022-08-19T01:00:34;3.73;;;3.40;;
44824;SDS011;30542;47.928;2.138;2022-08-19T01:05:36;5.38;;;3.58;;
44824;SDS011;30542;47.928;2.138;2022-08-19T01:10:42;3.78;;;3.47;;
44824;SDS011;30542;47.928;2.138;2022-08-19T01:15:46;3.40;;;3.10;;
44824;SDS011;30542;47.928;2.138;2022-08-19T01:20:52;4.17;;;3.33;;
44824;SDS011;30542;47.928;2.138;2022-08-19T01:25:56;4.10;;;3.38;;
44824;SDS011;30542;47.928;2.138;2022-08-19T01:30:56;3.23;;;2.90;;
44824;SDS011;30542;47.928;2.138;2022-08-19T01:36:08;3.75;;;3.45;;
44824;SDS011;30542;47.928;2.138;2022-08-19T01:41:11;3.67;;;3.38;;
44824;SDS011;30542;47.928;2.138;2022-08-19T01:46:12;3.97;;;3.50;;
44824;SDS011;30542;47.928;2.138;2022-08-19T01:51:12;3.57;;;3.17;;
44824;SDS011;30542;47.928;2.138;2022-08-19T01:56:13;3.45;;;3.25;;
44824;SDS011;30542;47.928;2.138;2022-08-19T02:01:14;3.20;;;3.00;;
44824;SDS011;30542;47.928;2.138;2022-08-19T02:06:14;3.70;;;2.92;;
44824;SDS011;30542;47.928;2.138;2022-08-19T02:11:21;4.30;;;3.40;;
44824;SDS011;30542;47.928;2.138;2022-08-19T02:16:26;2.92;;;2.70;;
44824;SDS011;30542;47.928;2.138;2022-08-19T02:21:28;3.20;;;3.00;;
44824;SDS011;30542;47.928;2.138;2022-08-19T02:26:29;3.42;;;3.13;;
44824;SDS011;30542;47.928;2.138;2022-08-19T02:31:32;3.60;;;3.30;;
44824;SDS011;30542;47.928;2.138;2022-08-19T02:36:33;3.45;;;2.88;;
44824;SDS011;30542;47.928;2.138;2022-08-19T02:41:34;2.92;;;2.75;;
44824;SDS011;30542;47.928;2.138;2022-08-19T02:46:34;3.50;;;3.20;;
44824;SDS011;30542;47.928;2.138;2022-08-19T02:51:38;3.72;;;3.42;;
44824;SDS011;30542;47.928;2.138;2022-08-19T02:56:42;3.40;;;3.08;;
44824;SDS011;30542;47.928;2.138;2022-08-19T03:01:43;3.20;;;2.95;;
44824;SDS011;30542;47.928;2.138;2022-08-19T03:06:45;3.58;;;3.03;;
44824;SDS011;30542;47.928;2.138;2022-08-19T03:11:46;3.47;;;3.00;;
44824;SDS011;30542;47.928;2.138;2022-08-19T03:16:47;3.28;;;2.92;;
44824;SDS011;30542;47.928;2.138;2022-08-19T03:21:49;3.28;;;3.03;;
44824;SDS011;30542;47.928;2.138;2022-08-19T03:26:52;3.20;;;3.00;;
44824;SDS011;30542;47.928;2.138;2022-08-19T03:31:58;3.33;;;3.03;;
44824;SDS011;30542;47.928;2.138;2022-08-19T03:42:07;3.22;;;3.03;;
44824;SDS011;30542;47.928;2.138;2022-08-19T03:52:14;3.13;;;2.83;;
44824;SDS011;30542;47.928;2.138;2022-08-19T03:57:15;3.42;;;3.22;;
44824;SDS011;30542;47.928;2.138;2022-08-19T04:02:15;3.23;;;2.93;;
44824;SDS011;30542;47.928;2.138;2022-08-19T04:07:16;3.60;;;3.30;;
44824;SDS011;30542;47.928;2.138;2022-08-19T04:12:21;3.35;;;3.05;;
44824;SDS011;30542;47.928;2.138;2022-08-19T04:17:21;3.13;;;2.83;;
44824;SDS011;30542;47.928;2.138;2022-08-19T04:22:22;2.92;;;2.72;;
44824;SDS011;30542;47.928;2.138;2022-08-19T04:27:22;3.90;;;3.50;;
44824;SDS011;30542;47.928;2.138;2022-08-19T04:32:22;3.90;;;3.20;;
44824;SDS011;30542;47.928;2.138;2022-08-19T04:37:23;6.07;;;3.73;;
44824;SDS011;30542;47.928;2.138;2022-08-19T04:42:24;4.60;;;4.20;;
44824;SDS011;30542;47.928;2.138;2022-08-19T04:47:41;4.60;;;4.20;;
44824;SDS011;30542;47.928;2.138;2022-08-19T04:52:43;3.92;;;3.63;;
44824;SDS011;30542;47.928;2.138;2022-08-19T04:57:43;4.00;;;3.67;;
44824;SDS011;30542;47.928;2.138;2022-08-19T05:02:44;4.70;;;4.00;;
44824;SDS011;30542;47.928;2.138;2022-08-19T05:07:44;19.50;;;9.20;;
44824;SDS011;30542;47.928;2.138;2022-08-19T05:12:45;35.28;;;17.52;;
44824;SDS011;30542;47.928;2.138;2022-08-19T05:17:45;32.80;;;14.40;;
44824;SDS011;30542;47.928;2.138;2022-08-19T05:23:05;20.08;;;10.00;;
44824;SDS011;30542;47.928;2.138;2022-08-19T05:28:06;16.42;;;9.05;;
44824;SDS011;30542;47.928;2.138;2022-08-19T05:33:07;11.10;;;7.37;;
44824;SDS011;30542;47.928;2.138;2022-08-19T05:38:10;9.52;;;6.57;;
44824;SDS011;30542;47.928;2.138;2022-08-19T05:43:11;7.95;;;5.60;;
44824;SDS011;30542;47.928;2.138;2022-08-19T05:48:11;7.63;;;4.90;;
44824;SDS011;30542;47.928;2.138;2022-08-19T05:53:12;5.20;;;4.70;;
44824;SDS011;30542;47.928;2.138;2022-08-19T05:58:14;6.00;;;4.82;;
44824;SDS011;30542;47.928;2.138;2022-08-19T06:03:14;13.00;;;6.10;;
44824;SDS011;30542;47.928;2.138;2022-08-19T06:08:15;6.67;;;5.00;;
44824;SDS011;30542;47.928;2.138;2022-08-19T06:13:18;4.95;;;4.55;;
44824;SDS011;30542;47.928;2.138;2022-08-19T06:18:19;5.57;;;4.18;;
44824;SDS011;30542;47.928;2.138;2022-08-19T06:23:19;5.60;;;4.40;;
44824;SDS011;30542;47.928;2.138;2022-08-19T06:28:20;31.37;;;13.10;;
44824;SDS011;30542;47.928;2.138;2022-08-19T06:33:20;25.98;;;10.75;;
44824;SDS011;30542;47.928;2.138;2022-08-19T06:38:21;19.57;;;9.53;;
44824;SDS011;30542;47.928;2.138;2022-08-19T06:43:22;16.52;;;8.63;;
44824;SDS011;30542;47.928;2.138;2022-08-19T06:48:22;13.90;;;7.97;;
44824;SDS011;30542;47.928;2.138;2022-08-19T06:53:23;11.73;;;7.40;;
44824;SDS011;30542;47.928;2.138;2022-08-19T06:58:23;10.00;;;6.50;;
44824;SDS011;30542;47.928;2.138;2022-08-19T07:03:23;13.87;;;8.13;;
44824;SDS011;30542;47.928;2.138;2022-08-19T07:08:23;13.00;;;6.67;;
44824;SDS011;30542;47.928;2.138;2022-08-19T07:13:26;11.35;;;6.57;;
44824;SDS011;30542;47.928;2.138;2022-08-19T07:18:26;7.13;;;5.83;;
44824;SDS011;30542;47.928;2.138;2022-08-19T07:23:27;8.57;;;5.65;;
44824;SDS011;30542;47.928;2.138;2022-08-19T07:28:28;9.17;;;5.50;;
44824;SDS011;30542;47.928;2.138;2022-08-19T07:33:28;7.20;;;5.80;;
44824;SDS011;30542;47.928;2.138;2022-08-19T07:38:33;6.88;;;5.70;;
44824;SDS011;30542;47.928;2.138;2022-08-19T07:43:34;9.45;;;6.07;;
44824;SDS011;30542;47.928;2.138;2022-08-19T07:48:35;9.35;;;6.25;;
44824;SDS011;30542;47.928;2.138;2022-08-19T07:53:36;6.45;;;5.30;;
44824;SDS011;30542;47.928;2.138;2022-08-19T07:58:38;8.43;;;5.85;;
44824;SDS011;30542;47.928;2.138;2022-08-19T08:03:41;6.65;;;5.03;;
44824;SDS011;30542;47.928;2.138;2022-08-19T08:09:02;5.82;;;4.78;;
44824;SDS011;30542;47.928;2.138;2022-08-19T08:14:22;4.75;;;4.00;;
44824;SDS011;30542;47.928;2.138;2022-08-19T08:19:26;5.65;;;5.10;;
44824;SDS011;30542;47.928;2.138;2022-08-19T08:24:28;6.93;;;4.72;;
44824;SDS011;30542;47.928;2.138;2022-08-19T08:29:30;4.47;;;4.07;;
44824;SDS011;30542;47.928;2.138;2022-08-19T08:34:31;5.43;;;4.57;;
44824;SDS011;30542;47.928;2.138;2022-08-19T08:39:31;5.70;;;3.83;;
44824;SDS011;30542;47.928;2.138;2022-08-19T08:44:39;5.07;;;3.53;;
44824;SDS011;30542;47.928;2.138;2022-08-19T08:49:54;5.13;;;4.07;;
44824;SDS011;30542;47.928;2.138;2022-08-19T08:55:00;4.75;;;3.63;;
44824;SDS011;30542;47.928;2.138;2022-08-19T09:00:06;5.35;;;3.50;;
44824;SDS011;30542;47.928;2.138;2022-08-19T09:05:10;4.80;;;3.90;;
44824;SDS011;30542;47.928;2.138;2022-08-19T09:20:36;3.00;;;2.78;;
44824;SDS011;30542;47.928;2.138;2022-08-19T09:25:37;4.93;;;3.33;;
44824;SDS011;30542;47.928;2.138;2022-08-19T09:30:40;4.65;;;3.60;;
44824;SDS011;30542;47.928;2.138;2022-08-19T09:35:41;3.70;;;3.15;;
44824;SDS011;30542;47.928;2.138;2022-08-19T09:40:42;3.70;;;3.00;;
44824;SDS011;30542;47.928;2.138;2022-08-19T09:45:42;2.90;;;2.70;;
44824;SDS011;30542;47.928;2.138;2022-08-19T09:50:42;3.72;;;3.15;;
44824;SDS011;30542;47.928;2.138;2022-08-19T09:55:43;2.57;;;2.37;;
44824;SDS011;30542;47.928;2.138;2022-08-19T10:00:44;3.05;;;2.75;;
44824;SDS011;30542;47.928;2.138;2022-08-19T10:05:45;2.58;;;2.28;;
44824;SDS011;30542;47.928;2.138;2022-08-19T10:10:49;3.35;;;2.60;;
44824;SDS011;30542;47.928;2.138;2022-08-19T10:15:51;2.95;;;2.63;;
44824;SDS011;30542;47.928;2.138;2022-08-19T10:20:52;3.97;;;2.88;;
44824;SDS011;30542;47.928;2.138;2022-08-19T10:26:03;2.50;;;2.30;;
44824;SDS011;30542;47.928;2.138;2022-08-19T10:31:09;2.90;;;2.60;;
44824;SDS011;30542;47.928;2.138;2022-08-19T10:36:17;2.50;;;2.30;;
44824;SDS011;30542;47.928;2.138;2022-08-19T10:41:20;3.38;;;2.72;;
44824;SDS011;30542;47.928;2.138;2022-08-19T10:46:23;2.15;;;2.05;;
44824;SDS011;30542;47.928;2.138;2022-08-19T10:56:26;2.45;;;2.25;;
44824;SDS011;30542;47.928;2.138;2022-08-19T11:01:46;2.67;;;2.05;;
44824;SDS011;30542;47.928;2.138;2022-08-19T11:06:47;2.25;;;2.05;;
44824;SDS011;30542;47.928;2.138;2022-08-19T11:11:48;2.17;;;1.85;;
44824;SDS011;30542;47.928;2.138;2022-08-19T11:16:49;1.90;;;1.80;;
44824;SDS011;30542;47.928;2.138;2022-08-19T11:21:50;1.92;;;1.83;;
44824;SDS011;30542;47.928;2.138;2022-08-19T11:26:53;2.40;;;2.17;;
44824;SDS011;30542;47.928;2.138;2022-08-19T11:32:00;2.25;;;1.88;;
44824;SDS011;30542;47.928;2.138;2022-08-19T11:37:04;2.10;;;2.00;;
44824;SDS011;30542;47.928;2.138;2022-08-19T11:42:06;1.85;;;1.52;;
44824;SDS011;30542;47.928;2.138;2022-08-19T11:47:25;2.15;;;1.80;;
44824;SDS011;30542;47.928;2.138;2022-08-19T11:52:26;2.40;;;2.20;;
44824;SDS011;30542;47.928;2.138;2022-08-19T11:57:27;2.03;;;1.77;;
44824;SDS011;30542;47.928;2.138;2022-08-19T12:02:28;1.60;;;1.50;;
44824;SDS011;30542;47.928;2.138;2022-08-19T12:07:28;2.00;;;1.80;;
44824;SDS011;30542;47.928;2.138;2022-08-19T12:12:31;2.05;;;1.50;;
44824;SDS011;30542;47.928;2.138;2022-08-19T12:17:32;1.42;;;1.33;;
44824;SDS011;30542;47.928;2.138;2022-08-19T12:22:32;2.07;;;1.60;;
44824;SDS011;30542;47.928;2.138;2022-08-19T12:27:32;2.27;;;1.60;;
44824;SDS011;30542;47.928;2.138;2022-08-19T12:32:33;1.70;;;1.53;;
44824;SDS011;30542;47.928;2.138;2022-08-19T12:37:34;1.50;;;1.40;;
44824;SDS011;30542;47.928;2.138;2022-08-19T12:42:34;1.67;;;1.45;;
44824;SDS011;30542;47.928;2.138;2022-08-19T12:47:35;2.17;;;1.47;;
44824;SDS011;30542;47.928;2.138;2022-08-19T12:52:36;1.27;;;1.17;;
44824;SDS011;30542;47.928;2.138;2022-08-19T12:57:37;1.48;;;1.20;;
44824;SDS011;30542;47.928;2.138;2022-08-19T13:02:38;1.25;;;0.93;;
44824;SDS011;30542;47.928;2.138;2022-08-19T13:07:44;1.88;;;1.20;;
44824;SDS011;30542;47.928;2.138;2022-08-19T13:12:45;0.90;;;0.90;;
44824;SDS011;30542;47.928;2.138;2022-08-19T13:17:48;1.30;;;1.05;;
44824;SDS011;30542;47.928;2.138;2022-08-19T13:22:50;0.85;;;0.70;;
44824;SDS011;30542;47.928;2.138;2022-08-19T13:27:51;1.13;;;0.80;;
44824;SDS011;30542;47.928;2.138;2022-08-19T13:32:52;1.00;;;0.70;;
44824;SDS011;30542;47.928;2.138;2022-08-19T13:38:11;0.60;;;0.60;;
44824;SDS011;30542;47.928;2.138;2022-08-19T13:43:12;1.00;;;0.65;;
44824;SDS011;30542;47.928;2.138;2022-08-19T13:48:13;0.73;;;0.60;;
44824;SDS011;30542;47.928;2.138;2022-08-19T13:53:14;0.97;;;0.50;;
44824;SDS011;30542;47.928;2.138;2022-08-19T13:58:15;0.70;;;0.52;;
44824;SDS011;30542;47.928;2.138;2022-08-19T14:03:15;1.90;;;0.60;;
44824;SDS011;30542;47.928;2.138;2022-08-19T14:08:16;1.67;;;0.40;;
44824;SDS011;30542;47.928;2.138;2022-08-19T14:13:18;0.73;;;0.40;;
44824;SDS011;30542;47.928;2.138;2022-08-19T14:18:20;1.23;;;0.40;;
44824;SDS011;30542;47.928;2.138;2022-08-19T14:23:21;2.63;;;0.40;;
44824;SDS011;30542;47.928;2.138;2022-08-19T14:28:21;0.60;;;0.40;;
44824;SDS011;30542;47.928;2.138;2022-08-19T14:33:22;0.65;;;0.40;;
44824;SDS011;30542;47.928;2.138;2022-08-19T14:38:22;1.80;;;0.40;;
44824;SDS011;30542;47.928;2.138;2022-08-19T14:43:23;2.67;;;0.70;;
44824;SDS011;30542;47.928;2.138;2022-08-19T14:48:23;1.93;;;0.50;;
44824;SDS011;30542;47.928;2.138;2022-08-19T14:53:23;1.30;;;0.40;;
44824;SDS011;30542;47.928;2.138;2022-08-19T14:58:24;0.70;;;0.30;;
44824;SDS011;30542;47.928;2.138;2022-08-19T15:03:24;2.07;;;0.37;;
44824;SDS011;30542;47.928;2.138;2022-08-19T15:08:26;0.93;;;0.30;;
44824;SDS011;30542;47.928;2.138;2022-08-19T15:13:28;1.15;;;0.30;;
44824;SDS011;30542;47.928;2.138;2022-08-19T15:18:29;1.95;;;0.45;;
44824;SDS011;30542;47.928;2.138;2022-08-19T15:23:29;6.43;;;0.67;;
44824;SDS011;30542;47.928;2.138;2022-08-19T15:28:30;2.07;;;0.40;;
44824;SDS011;30542;47.928;2.138;2022-08-19T15:33:31;3.85;;;0.50;;
44824;SDS011;30542;47.928;2.138;2022-08-19T15:38:35;1.25;;;0.40;;
44824;SDS011;30542;47.928;2.138;2022-08-19T15:43:36;1.17;;;0.27;;
44824;SDS011;30542;47.928;2.138;2022-08-19T15:48:41;1.40;;;0.30;;
44824;SDS011;30542;47.928;2.138;2022-08-19T15:53:42;3.33;;;0.30;;
44824;SDS011;30542;47.928;2.138;2022-08-19T15:58:43;3.10;;;0.65;;
44824;SDS011;30542;47.928;2.138;2022-08-19T16:04:02;1.23;;;0.43;;
44824;SDS011;30542;47.928;2.138;2022-08-19T16:09:22;0.70;;;0.30;;
44824;SDS011;30542;47.928;2.138;2022-08-19T16:14:24;0.52;;;0.30;;
44824;SDS011;30542;47.928;2.138;2022-08-19T16:19:25;0.60;;;0.30;;
44824;SDS011;30542;47.928;2.138;2022-08-19T16:24:26;0.50;;;0.45;;
44824;SDS011;30542;47.928;2.138;2022-08-19T16:29:27;1.65;;;0.30;;
44824;SDS011;30542;47.928;2.138;2022-08-19T16:34:28;1.15;;;0.28;;
44824;SDS011;30542;47.928;2.138;2022-08-19T16:39:28;1.05;;;0.32;;
44824;SDS011;30542;47.928;2.138;2022-08-19T16:44:28;1.57;;;0.30;;
44824;SDS011;30542;47.928;2.138;2022-08-19T16:49:29;1.27;;;0.30;;
44824;SDS011;30542;47.928;2.138;2022-08-19T16:54:30;1.30;;;0.20;;
44824;SDS011;30542;47.928;2.138;2022-08-19T16:59:32;0.50;;;0.30;;
44824;SDS011;30542;47.928;2.138;2022-08-19T17:04:33;0.52;;;0.25;;
44824;SDS011;30542;47.928;2.138;2022-08-19T17:09:33;0.40;;;0.20;;
44824;SDS011;30542;47.928;2.138;2022-08-19T17:14:34;0.70;;;0.30;;
44824;SDS011;30542;47.928;2.138;2022-08-19T17:19:34;0.37;;;0.20;;
44824;SDS011;30542;47.928;2.138;2022-08-19T17:24:35;1.03;;;0.20;;
44824;SDS011;30542;47.928;2.138;2022-08-19T17:29:35;1.85;;;0.20;;
44824;SDS011;30542;47.928;2.138;2022-08-19T17:34:36;0.50;;;0.20;;
44824;SDS011;30542;47.928;2.138;2022-08-19T17:39:37;0.60;;;0.20;;
44824;SDS011;30542;47.928;2.138;2022-08-19T17:44:37;0.47;;;0.20;;
44824;SDS011;30542;47.928;2.138;2022-08-19T17:49:39;0.40;;;0.20;;
44824;SDS011;30542;47.928;2.138;2022-08-19T17:54:40;0.67;;;0.20;;
44824;SDS011;30542;47.928;2.138;2022-08-19T17:59:40;0.35;;;0.20;;
44824;SDS011;30542;47.928;2.138;2022-08-19T18:04:41;0.97;;;0.20;;
44824;SDS011;30542;47.928;2.138;2022-08-19T18:09:41;0.30;;;0.30;;
44824;SDS011;30542;47.928;2.138;2022-08-19T18:14:41;0.60;;;0.20;;
44824;SDS011;30542;47.928;2.138;2022-08-19T18:19:42;1.73;;;0.20;;
44824;SDS011;30542;47.928;2.138;2022-08-19T18:24:44;0.60;;;0.10;;
44824;SDS011;30542;47.928;2.138;2022-08-19T18:29:44;0.23;;;0.20;;
44824;SDS011;30542;47.928;2.138;2022-08-19T18:34:45;1.40;;;0.30;;
44824;SDS011;30542;47.928;2.138;2022-08-19T18:39:45;1.13;;;0.20;;
44824;SDS011;30542;47.928;2.138;2022-08-19T18:45:04;1.33;;;0.25;;
44824;SDS011;30542;47.928;2.138;2022-08-19T18:50:24;0.45;;;0.17;;
44824;SDS011;30542;47.928;2.138;2022-08-19T18:55:24;0.47;;;0.20;;
44824;SDS011;30542;47.928;2.138;2022-08-19T19:00:27;0.30;;;0.20;;
44824;SDS011;30542;47.928;2.138;2022-08-19T19:05:28;0.30;;;0.20;;
44824;SDS011;30542;47.928;2.138;2022-08-19T19:10:28;0.60;;;0.20;;
44824;SDS011;30542;47.928;2.138;2022-08-19T19:15:29;0.77;;;0.20;;
44824;SDS011;30542;47.928;2.138;2022-08-19T19:20:29;0.20;;;0.13;;
44824;SDS011;30542;47.928;2.138;2022-08-19T19:25:29;0.40;;;0.20;;
44824;SDS011;30542;47.928;2.138;2022-08-19T19:30:31;0.60;;;0.25;;
44824;SDS011;30542;47.928;2.138;2022-08-19T19:35:32;0.77;;;0.20;;
44824;SDS011;30542;47.928;2.138;2022-08-19T19:40:32;1.38;;;0.28;;
44824;SDS011;30542;47.928;2.138;2022-08-19T19:45:33;0.53;;;0.10;;
44824;SDS011;30542;47.928;2.138;2022-08-19T19:50:33;0.30;;;0.20;;
44824;SDS011;30542;47.928;2.138;2022-08-19T19:55:33;0.50;;;0.20;;
44824;SDS011;30542;47.928;2.138;2022-08-19T20:00:35;0.50;;;0.20;;
44824;SDS011;30542;47.928;2.138;2022-08-19T20:05:35;0.50;;;0.20;;
44824;SDS011;30542;47.928;2.138;2022-08-19T20:10:36;0.43;;;0.10;;
44824;SDS011;30542;47.928;2.138;2022-08-19T20:15:37;0.22;;;0.20;;
44824;SDS011;30542;47.928;2.138;2022-08-19T20:20:39;0.10;;;0.10;;
44824;SDS011;30542;47.928;2.138;2022-08-19T20:25:40;0.38;;;0.20;;
44824;SDS011;30542;47.928;2.138;2022-08-19T20:30:41;1.10;;;0.30;;
44824;SDS011;30542;47.928;2.138;2022-08-19T20:35:42;0.25;;;0.20;;
44824;SDS011;30542;47.928;2.138;2022-08-19T20:40:44;0.47;;;0.28;;
44824;SDS011;30542;47.928;2.138;2022-08-19T20:45:45;0.68;;;0.30;;
44824;SDS011;30542;47.928;2.138;2022-08-19T20:50:46;0.20;;;0.10;;
44824;SDS011;30542;47.928;2.138;2022-08-19T20:55:47;0.80;;;0.30;;
44824;SDS011;30542;47.928;2.138;2022-08-19T21:00:48;0.50;;;0.25;;
44824;SDS011;30542;47.928;2.138;2022-08-19T21:05:49;2.83;;;0.40;;
44824;SDS011;30542;47.928;2.138;2022-08-19T21:10:50;1.00;;;0.50;;
44824;SDS011;30542;47.928;2.138;2022-08-19T21:15:51;1.65;;;0.50;;
44824;SDS011;30542;47.928;2.138;2022-08-19T21:20:52;1.52;;;0.30;;
44824;SDS011;30542;47.928;2.138;2022-08-19T21:25:54;1.27;;;0.40;;
44824;SDS011;30542;47.928;2.138;2022-08-19T21:30:57;2.20;;;0.45;;
44824;SDS011;30542;47.928;2.138;2022-08-19T21:35:59;0.82;;;0.30;;
44824;SDS011;30542;47.928;2.138;2022-08-19T21:41:00;1.95;;;0.40;;
44824;SDS011;30542;47.928;2.138;2022-08-19T21:46:01;1.08;;;0.30;;
44824;SDS011;30542;47.928;2.138;2022-08-19T21:51:02;1.20;;;0.25;;
44824;SDS011;30542;47.928;2.138;2022-08-19T21:56:02;0.67;;;0.30;;
44824;SDS011;30542;47.928;2.138;2022-08-19T22:01:05;0.77;;;0.20;;
44824;SDS011;30542;47.928;2.138;2022-08-19T22:06:06;1.75;;;0.30;;
44824;SDS011;30542;47.928;2.138;2022-08-19T22:11:08;0.63;;;0.20;;
44824;SDS011;30542;47.928;2.138;2022-08-19T22:16:08;0.67;;;0.27;;
44824;SDS011;30542;47.928;2.138;2022-08-19T22:21:09;1.10;;;0.20;;
44824;SDS011;30542;47.928;2.138;2022-08-19T22:26:10;1.10;;;0.20;;
44824;SDS011;30542;47.928;2.138;2022-08-19T22:31:11;0.40;;;0.22;;
44824;SDS011;30542;47.928;2.138;2022-08-19T22:36:11;0.75;;;0.30;;
44824;SDS011;30542;47.928;2.138;2022-08-19T22:41:13;0.63;;;0.30;;
44824;SDS011;30542;47.928;2.138;2022-08-19T22:46:15;1.38;;;0.50;;
44824;SDS011;30542;47.928;2.138;2022-08-19T22:51:16;1.25;;;0.30;;
44824;SDS011;30542;47.928;2.138;2022-08-19T22:56:35;0.57;;;0.20;;
44824;SDS011;30542;47.928;2.138;2022-08-19T23:01:35;0.80;;;0.27;;
44824;SDS011;30542;47.928;2.138;2022-08-19T23:06:36;1.92;;;0.38;;
44824;SDS011;30542;47.928;2.138;2022-08-19T23:11:37;0.20;;;0.20;;
44824;SDS011;30542;47.928;2.138;2022-08-19T23:16:39;2.42;;;0.40;;
44824;SDS011;30542;47.928;2.138;2022-08-19T23:21:41;1.83;;;0.30;;
44824;SDS011;30542;47.928;2.138;2022-08-19T23:26:41;0.45;;;0.20;;
44824;SDS011;30542;47.928;2.138;2022-08-19T23:32:00;1.60;;;0.20;;
44824;SDS011;30542;47.928;2.138;2022-08-19T23:37:01;1.25;;;0.20;;
44824;SDS011;30542;47.928;2.138;2022-08-19T23:42:02;0.30;;;0.20;;
44824;SDS011;30542;47.928;2.138;2022-08-19T23:47:07;0.30;;;0.20;;
44824;SDS011;30542;47.928;2.138;2022-08-19T23:52:07;1.23;;;0.20;;
44824;SDS011;30542;47.928;2.138;2022-08-19T23:57:08;0.30;;;0.10;;
